createdAt,value
2022-08-10T06:10:32.196Z,96646.34
2022-08-10T06:13:30.853Z,96634.59
2022-08-10T06:16:05.672Z,96640.50
2022-08-10T06:18:34.161Z,96644.31
2022-08-10T06:21:03.083Z,96639.78
2022-08-10T06:23:32.354Z,96521.31
2022-08-10T06:26:11.332Z,96634.41
2022-08-10T06:28:58.235Z,96636.81
2022-08-10T06:31:48.901Z,96587.31
2022-08-10T06:34:22.037Z,96615.53
2022-08-10T06:36:51.031Z,96632.81
2022-08-10T06:39:35.912Z,96630.38
2022-08-10T06:42:15.526Z,96627.41
2022-08-10T06:44:50.256Z,96621.91
2022-08-10T06:47:22.817Z,96525.41
2022-08-10T06:49:59.540Z,96614.44
2022-08-10T06:52:33.779Z,96598.38
2022-08-10T06:55:05.651Z,96623.72
2022-08-10T06:57:39.714Z,96624.16
2022-08-10T07:00:09.716Z,96604.97
2022-08-10T07:02:45.254Z,96626.97
2022-08-10T07:05:19.078Z,96623.66
2022-08-10T07:07:48.625Z,96482.44
2022-08-10T07:10:19.709Z,96514.16
2022-08-10T07:12:51.078Z,96619.19
2022-08-10T07:15:20.593Z,96560.31
2022-08-10T07:17:49.422Z,96504.50
2022-08-10T07:20:19.779Z,96597.88
2022-08-10T07:23:01.598Z,96586.88
2022-08-10T07:25:39.583Z,96592.84
2022-08-10T07:28:09.356Z,96557.47
2022-08-10T07:30:39.166Z,96586.94
2022-08-10T07:33:08.368Z,96586.88
2022-08-10T07:35:42.648Z,96597.97
2022-08-10T07:38:14.016Z,96596.41
2022-08-10T07:40:44.857Z,96458.28
2022-08-10T07:43:16.244Z,96603.28
2022-08-10T07:45:44.280Z,96556.31
2022-08-10T07:48:16.307Z,96599.59
2022-08-10T07:50:46.364Z,96585.91
2022-08-10T07:53:20.939Z,96597.31
2022-08-10T07:56:02.865Z,96569.03
2022-08-10T07:58:49.883Z,96559.06
2022-08-10T08:01:24.159Z,96610.63
2022-08-10T08:04:05.674Z,96599.63
2022-08-10T08:06:42.514Z,96606.03
2022-08-10T08:09:11.735Z,96571.38
2022-08-10T08:11:42.160Z,96519.28
2022-08-10T08:14:12.784Z,96592.72
2022-08-10T08:16:44.536Z,96600.53
2022-08-10T08:19:37.081Z,96475.47
2022-08-10T08:24:10.786Z,96594.34
2022-08-10T08:24:57.669Z,96592.91
2022-08-10T08:27:27.188Z,96600.09
2022-08-10T08:29:56.854Z,96598.50
2022-08-10T08:32:27.667Z,96570.84
2022-08-10T08:34:59.066Z,96590.28
2022-08-10T08:38:31.883Z,96588.53
2022-08-10T08:40:23.271Z,96547.69
2022-08-10T08:43:21.383Z,96602.41
2022-08-10T08:46:28.666Z,96558.09
2022-08-10T08:50:08.012Z,96534.41
2022-08-10T08:52:18.222Z,96553.63
2022-08-10T08:54:59.045Z,96599.97
2022-08-10T08:57:50.568Z,96495.63
2022-08-10T09:00:26.501Z,96593.31
2022-08-10T09:03:17.883Z,96580.81
2022-08-10T09:05:59.627Z,96603.19
2022-08-10T09:08:51.032Z,96604.28
2022-08-10T09:11:31.556Z,96507.81
2022-08-10T09:14:05.653Z,96599.47
2022-08-10T09:16:52.474Z,96601.91
2022-08-10T09:19:35.038Z,96604.88
2022-08-10T09:22:18.082Z,96523.66
2022-08-10T09:24:50.910Z,96552.91
2022-08-10T09:27:21.542Z,96553.78
2022-08-10T09:29:55.760Z,96525.22
2022-08-10T09:36:14.575Z,96523.81
2022-08-10T09:36:19.402Z,96592.38
2022-08-10T09:38:29.817Z,96598.66
2022-08-10T09:41:12.253Z,96562.47
2022-08-10T09:43:53.242Z,96512.72
2022-08-10T09:46:34.973Z,96523.13
2022-08-10T09:49:09.721Z,96497.50
2022-08-10T09:51:55.390Z,96525.13
2022-08-10T09:54:37.003Z,96565.41
2022-08-10T09:57:43.496Z,96574.16
2022-08-10T10:00:10.592Z,96581.78
2022-08-10T10:02:52.349Z,96561.31
2022-08-10T10:05:31.044Z,96573.75
2022-08-10T10:08:07.262Z,96577.13
2022-08-10T10:10:46.555Z,96571.91
2022-08-10T10:13:52.864Z,96515.97
2022-08-10T10:16:26.850Z,96472.56
2022-08-10T10:19:05.480Z,96511.50
2022-08-10T10:21:55.087Z,96510.50
2022-08-10T10:24:42.389Z,96513.72
2022-08-10T10:27:24.720Z,96565.31
2022-08-10T10:30:05.859Z,96578.13
2022-08-10T10:32:48.703Z,96570.84
2022-08-10T10:35:24.495Z,96482.47
2022-08-10T10:38:01.861Z,96493.28
2022-08-10T10:40:41.073Z,96575.28
2022-08-10T10:43:18.208Z,96519.66
2022-08-10T10:46:09.783Z,96571.53
2022-08-10T10:48:42.559Z,96570.31
2022-08-10T10:51:17.386Z,96569.31
2022-08-10T10:53:51.344Z,96456.63
2022-08-10T10:56:29.063Z,96476.16
2022-08-10T10:59:33.219Z,96465.16
2022-08-10T11:02:10.198Z,96557.91
2022-08-10T11:04:43.885Z,96502.47
2022-08-10T11:07:31.976Z,96570.88
2022-08-10T11:10:19.778Z,96565.63
2022-08-10T11:14:23.188Z,96500.59
2022-08-10T11:16:02.416Z,96576.66
2022-08-10T11:18:49.212Z,96559.50
2022-08-10T11:21:25.748Z,96555.06
2022-08-10T11:24:47.037Z,96579.88
2022-08-10T11:26:59.709Z,96570.75
2022-08-10T11:29:34.944Z,96561.84
2022-08-10T11:32:07.814Z,96541.31
2022-08-10T11:35:11.517Z,96563.34
2022-08-10T11:38:32.816Z,96580.00
2022-08-10T11:40:40.039Z,96590.91
2022-08-10T11:43:12.451Z,96537.81
2022-08-10T11:45:52.565Z,96508.44
2022-08-10T11:48:53.239Z,96459.56
2022-08-10T11:51:22.203Z,96533.00
2022-08-10T11:53:58.830Z,96566.88
2022-08-10T11:56:34.335Z,96516.06
2022-08-10T11:59:24.213Z,96462.78
2022-08-10T12:01:55.723Z,96567.50
2022-08-10T12:04:25.528Z,96531.72
2022-08-10T12:06:56.015Z,96535.50
2022-08-10T12:10:05.466Z,96511.81
2022-08-10T12:12:14.342Z,96548.28
2022-08-10T12:14:48.063Z,96559.31
2022-08-10T12:17:21.969Z,96523.44
2022-08-10T12:20:02.612Z,96511.44
2022-08-10T12:22:35.276Z,96487.41
2022-08-10T12:25:06.963Z,96547.88
2022-08-10T12:27:41.008Z,96492.13
2022-08-10T12:30:10.993Z,96470.59
2022-08-10T12:32:46.363Z,96481.47
2022-08-10T12:35:22.772Z,96519.03
2022-08-10T12:38:05.877Z,96490.47
2022-08-10T12:40:41.314Z,96540.53
2022-08-10T12:44:05.035Z,96453.53
2022-08-10T12:46:08.225Z,96537.09
2022-08-10T12:48:44.938Z,96530.22
2022-08-10T12:51:19.599Z,96444.59
2022-08-10T12:53:54.645Z,96424.81
2022-08-10T12:56:25.604Z,96520.88
2022-08-10T12:58:59.483Z,96523.50
2022-08-10T13:02:06.919Z,96482.09
2022-08-10T13:04:30.860Z,96527.34
2022-08-10T13:07:01.228Z,96523.94
2022-08-10T13:09:29.835Z,96399.31
2022-08-10T13:12:36.916Z,96491.91
2022-08-10T13:14:55.998Z,96515.50
2022-08-10T13:17:39.121Z,96510.84
2022-08-10T13:20:17.846Z,96521.63
2022-08-10T13:22:49.307Z,96435.81
2022-08-10T13:25:21.075Z,96511.69
2022-08-10T13:28:01.158Z,96507.00
2022-08-10T13:30:40.364Z,96510.00
2022-08-10T13:33:10.291Z,96504.78
2022-08-10T13:35:40.193Z,96464.16
2022-08-10T13:38:10.268Z,96498.66
2022-08-10T13:40:39.735Z,96489.00
2022-08-10T13:43:10.913Z,96487.94
2022-08-10T13:45:46.394Z,96398.94
2022-08-10T13:48:20.491Z,96487.94
2022-08-10T13:50:51.797Z,96496.53
2022-08-10T13:53:23.458Z,96490.91
2022-08-10T13:55:56.365Z,96472.25
2022-08-10T13:58:29.182Z,96380.47
2022-08-10T14:00:58.860Z,96491.13
2022-08-10T14:03:28.033Z,96492.91
2022-08-10T14:05:59.439Z,96490.72
2022-08-10T14:08:30.297Z,96447.81
2022-08-10T14:11:11.863Z,96426.66
2022-08-10T14:13:45.202Z,96437.75
2022-08-10T14:16:14.343Z,96458.69
2022-08-10T14:18:45.720Z,96437.91
2022-08-10T14:21:15.790Z,96466.75
2022-08-10T14:23:53.308Z,96460.63
2022-08-10T14:26:26.007Z,96465.66
2022-08-10T14:28:57.143Z,96376.13
2022-08-10T14:31:31.125Z,96456.41
2022-08-10T14:34:01.734Z,96409.22
2022-08-10T14:36:44.949Z,96450.28
2022-08-10T14:39:20.680Z,96373.34
2022-08-10T14:42:03.156Z,96434.94
2022-08-10T14:44:46.036Z,96454.34
2022-08-10T14:47:59.467Z,96404.03
2022-08-10T14:50:31.585Z,96446.75
2022-08-10T14:53:09.640Z,96450.97
2022-08-10T14:55:59.264Z,96358.16
2022-08-10T14:58:32.895Z,96276.34
2022-08-10T15:01:01.923Z,96389.03
2022-08-10T15:03:58.610Z,96446.22
2022-08-10T15:06:30.345Z,96438.06
2022-08-10T15:09:19.495Z,96413.50
2022-08-10T15:12:11.899Z,96423.81
2022-08-10T15:14:46.080Z,96441.44
2022-08-10T15:17:26.750Z,96427.00
2022-08-10T15:20:03.225Z,96436.50
2022-08-10T15:22:41.533Z,96432.59
2022-08-10T15:25:19.470Z,96359.50
2022-08-10T15:27:55.728Z,96390.91
2022-08-10T15:30:50.598Z,96437.94
2022-08-10T15:34:02.158Z,96438.94
2022-08-10T15:36:46.141Z,96434.84
2022-08-10T15:40:24.437Z,96427.84
2022-08-10T15:42:21.932Z,96425.50
2022-08-10T15:44:53.430Z,96372.44
2022-08-10T15:47:28.175Z,96404.84
2022-08-10T15:50:18.884Z,96397.31
2022-08-10T15:53:00.403Z,96282.31
2022-08-10T15:55:43.131Z,96375.53
2022-08-10T15:58:20.253Z,96401.69
2022-08-10T16:02:13.373Z,96326.78
2022-08-10T16:04:08.469Z,96306.16
2022-08-10T16:06:49.978Z,96348.50
2022-08-10T16:10:22.741Z,96335.38
2022-08-10T16:12:14.322Z,96346.00
2022-08-10T16:14:50.248Z,96409.31
2022-08-10T16:17:19.454Z,96405.25
2022-08-10T16:19:50.783Z,96404.84
2022-08-10T16:22:34.155Z,96390.81
2022-08-10T16:25:13.711Z,96245.41
2022-08-10T16:27:45.743Z,96381.16
2022-08-10T16:30:15.938Z,96390.00
2022-08-10T16:32:47.526Z,96399.63
2022-08-10T16:35:21.032Z,96358.00
2022-08-10T16:37:58.017Z,96405.84
2022-08-10T16:40:28.857Z,96393.09
2022-08-10T16:42:58.929Z,96390.75
2022-08-10T16:45:34.451Z,96268.47
2022-08-10T16:48:04.918Z,96307.19
2022-08-10T16:50:38.617Z,96356.66
2022-08-10T16:53:08.381Z,96388.72
2022-08-10T16:55:49.551Z,96394.13
2022-08-10T16:58:20.786Z,96382.28
2022-08-10T17:01:21.165Z,96396.94
2022-08-10T17:04:05.623Z,96395.88
2022-08-10T17:06:41.800Z,96396.94
2022-08-10T17:09:17.090Z,96369.44
2022-08-10T17:11:49.142Z,96379.13
2022-08-10T17:14:17.295Z,96394.94
2022-08-10T17:16:53.815Z,96384.03
2022-08-10T17:19:23.709Z,96390.91
2022-08-10T17:21:57.190Z,96382.03
2022-08-10T17:24:29.865Z,96399.41
2022-08-10T17:26:59.441Z,96381.13
2022-08-10T17:29:58.252Z,96318.22
2022-08-10T17:32:31.551Z,96231.16
2022-08-10T17:35:02.166Z,96378.00
2022-08-10T17:37:37.332Z,96290.22
2022-08-10T17:40:09.053Z,96348.09
2022-08-10T17:42:39.327Z,96380.78
2022-08-10T17:45:14.929Z,96365.19
2022-08-10T17:48:08.110Z,96362.69
2022-08-10T17:50:37.930Z,96312.56
2022-08-10T17:53:14.418Z,96388.94
2022-08-10T17:55:49.272Z,96316.72
2022-08-10T17:58:20.731Z,96316.75
2022-08-10T18:00:50.924Z,96397.84
2022-08-10T18:03:25.546Z,96292.50
2022-08-10T18:05:56.095Z,96392.56
2022-08-10T18:08:28.978Z,96387.50
2022-08-10T18:10:59.588Z,96385.56
2022-08-10T18:13:56.333Z,96394.28
2022-08-10T18:16:24.838Z,96382.28
2022-08-10T18:19:00.034Z,96354.38
2022-08-10T18:21:31.973Z,96322.22
2022-08-10T18:24:02.083Z,96310.34
2022-08-10T18:26:36.095Z,96296.84
2022-08-10T18:29:10.768Z,96410.00
2022-08-10T18:31:44.694Z,96409.75
2022-08-10T18:34:19.504Z,96385.91
2022-08-10T18:36:49.594Z,96246.94
2022-08-10T18:39:22.692Z,96405.59
2022-08-10T18:42:00.147Z,96406.28
2022-08-10T18:44:37.065Z,96384.66
2022-08-10T18:47:14.321Z,96431.78
2022-08-10T18:50:02.143Z,96329.88
2022-08-10T18:52:33.731Z,96437.16
2022-08-10T18:55:14.506Z,96427.84
2022-08-10T18:58:08.668Z,96401.09
2022-08-10T19:00:49.339Z,96401.06
2022-08-10T19:03:32.215Z,96394.63
2022-08-10T19:06:17.914Z,96356.69
2022-08-10T19:08:59.896Z,96464.00
2022-08-10T19:11:48.040Z,96440.31
2022-08-10T19:14:19.091Z,96367.28
2022-08-10T19:16:55.666Z,96426.63
2022-08-10T19:19:36.738Z,96427.47
2022-08-10T19:22:09.933Z,96437.63
2022-08-10T19:24:48.127Z,96424.19
2022-08-10T19:27:31.708Z,96393.94
2022-08-10T19:30:11.236Z,96453.50
2022-08-10T19:32:56.041Z,96444.09
2022-08-10T19:36:04.548Z,96371.13
2022-08-10T19:38:33.762Z,96389.69
2022-08-10T19:41:13.860Z,96376.38
2022-08-10T19:44:00.533Z,96296.13
2022-08-10T19:46:40.121Z,96419.94
2022-08-10T19:49:19.450Z,96379.97
2022-08-10T19:51:56.566Z,96431.13
2022-08-10T19:54:34.574Z,96450.44
2022-08-10T19:57:08.761Z,96453.25
2022-08-10T20:00:15.812Z,96392.72
2022-08-10T20:02:51.427Z,96412.84
2022-08-10T20:05:28.657Z,96441.00
2022-08-10T20:08:03.614Z,96418.47
2022-08-10T20:10:44.331Z,96314.50
2022-08-10T20:13:15.629Z,96427.69
2022-08-10T20:15:47.562Z,96335.13
2022-08-10T20:18:23.892Z,96398.84
2022-08-10T20:20:59.038Z,96440.25
2022-08-10T20:23:33.920Z,96410.63
2022-08-10T20:26:11.264Z,96410.09
2022-08-10T20:28:43.331Z,96354.38
2022-08-10T20:31:17.797Z,96436.13
2022-08-10T20:34:00.334Z,96333.56
2022-08-10T20:36:32.687Z,96444.59
2022-08-10T20:39:12.315Z,96438.69
2022-08-10T20:41:57.932Z,96419.78
2022-08-10T20:44:39.965Z,96425.66
2022-08-10T20:47:31.776Z,96406.28
2022-08-10T20:50:07.747Z,96405.91
2022-08-10T20:52:37.269Z,96435.44
2022-08-10T20:55:10.671Z,96436.25
2022-08-10T20:58:01.577Z,96432.09
2022-08-10T21:00:42.882Z,96433.88
2022-08-10T21:03:32.914Z,96430.75
2022-08-10T21:06:14.995Z,96387.81
2022-08-10T21:08:51.952Z,96413.53
2022-08-10T21:11:35.151Z,96407.94
2022-08-10T21:14:21.104Z,96420.91
2022-08-10T21:17:06.354Z,96421.03
2022-08-10T21:20:06.784Z,96424.69
2022-08-10T21:22:39.964Z,96385.56
2022-08-10T21:25:12.668Z,96369.19
2022-08-10T21:28:16.724Z,96423.22
2022-08-10T21:31:11.932Z,96375.53
2022-08-10T21:33:46.129Z,96433.22
2022-08-10T21:36:22.620Z,96431.41
2022-08-10T21:38:58.226Z,96400.59
2022-08-10T21:41:58.812Z,96392.44
2022-08-10T21:45:08.158Z,96433.00
2022-08-10T21:48:17.373Z,96426.75
2022-08-10T21:51:10.362Z,96404.69
2022-08-10T21:54:09.058Z,96400.63
2022-08-10T21:56:59.342Z,96420.91
2022-08-10T21:59:51.095Z,96419.25
2022-08-10T22:02:50.274Z,96423.72
2022-08-10T22:05:44.541Z,96421.56
2022-08-10T22:08:34.806Z,96400.84
2022-08-10T22:11:22.546Z,96386.63
2022-08-10T22:14:10.315Z,96413.16
2022-08-10T22:17:59.361Z,96399.34
2022-08-10T22:20:18.739Z,96403.47
2022-08-10T22:23:30.743Z,96392.47
2022-08-10T22:26:27.522Z,96352.06
2022-08-10T22:29:17.221Z,96394.75
2022-08-10T22:32:17.422Z,96395.22
2022-08-10T22:35:31.379Z,96358.06
2022-08-10T22:38:33.987Z,96400.72
2022-08-10T22:41:27.514Z,96368.44
2022-08-10T22:44:18.159Z,96386.47
2022-08-10T22:47:05.074Z,96366.56
2022-08-10T22:49:32.023Z,96388.06
2022-08-10T22:52:07.577Z,96346.03
2022-08-10T22:54:59.967Z,96389.97
2022-08-10T22:57:45.442Z,96368.63
2022-08-10T23:00:16.482Z,96392.00
2022-08-10T23:02:57.178Z,96372.88
2022-08-10T23:05:32.037Z,96369.41
2022-08-10T23:08:05.096Z,96376.78
2022-08-10T23:10:42.266Z,96369.69
2022-08-10T23:13:35.312Z,96368.13
2022-08-10T23:16:26.525Z,96303.13
2022-08-10T23:19:11.567Z,96384.59
2022-08-10T23:22:05.118Z,96387.91
2022-08-10T23:24:38.524Z,96345.03
2022-08-10T23:27:13.208Z,96375.13
2022-08-10T23:30:09.873Z,96379.34
2022-08-10T23:32:42.497Z,96373.38
2022-08-10T23:36:31.269Z,96374.00
2022-08-10T23:38:04.411Z,96373.53
2022-08-10T23:40:33.459Z,96339.59
2022-08-10T23:43:04.101Z,96322.03
2022-08-10T23:45:53.474Z,96352.47
2022-08-10T23:48:23.620Z,96368.00
2022-08-10T23:50:59.204Z,96369.56
2022-08-10T23:53:30.344Z,96338.44
2022-08-10T23:56:09.754Z,96312.19
2022-08-10T23:58:43.631Z,96333.56
